sensor_id;sensor_type;location;lat;lon;timestamp;temperature;humidity
36206;DHT22;22242;48.796;9.930;2023-04-25T00:01:26;7.70;99.90
36206;DHT22;22242;48.796;9.930;2023-04-25T00:03:54;7.60;99.90
36206;DHT22;22242;48.796;9.930;2023-04-25T00:06:21;7.60;99.90
36206;DHT22;22242;48.796;9.930;2023-04-25T00:08:52;7.60;99.90
36206;DHT22;22242;48.796;9.930;2023-04-25T00:11:21;7.70;99.90
36206;DHT22;22242;48.796;9.930;2023-04-25T00:13:48;7.80;99.90
36206;DHT22;22242;48.796;9.930;2023-04-25T00:16:16;7.80;99.90
36206;DHT22;22242;48.796;9.930;2023-04-25T00:18:44;7.80;99.90
36206;DHT22;22242;48.796;9.930;2023-04-25T00:21:12;7.80;99.90
36206;DHT22;22242;48.796;9.930;2023-04-25T00:23:39;7.90;99.90
36206;DHT22;22242;48.796;9.930;2023-04-25T00:26:06;8.00;99.90
36206;DHT22;22242;48.796;9.930;2023-04-25T00:28:34;7.90;99.90
36206;DHT22;22242;48.796;9.930;2023-04-25T00:31:01;8.00;99.90
36206;DHT22;22242;48.796;9.930;2023-04-25T00:33:28;8.00;99.90
36206;DHT22;22242;48.796;9.930;2023-04-25T00:35:56;8.10;99.90
36206;DHT22;22242;48.796;9.930;2023-04-25T00:38:23;8.10;99.90
36206;DHT22;22242;48.796;9.930;2023-04-25T00:40:50;8.00;99.90
36206;DHT22;22242;48.796;9.930;2023-04-25T00:43:18;8.00;99.90
36206;DHT22;22242;48.796;9.930;2023-04-25T00:45:47;8.10;99.90
36206;DHT22;22242;48.796;9.930;2023-04-25T00:48:17;8.10;99.90
36206;DHT22;22242;48.796;9.930;2023-04-25T00:50:49;8.00;99.90
36206;DHT22;22242;48.796;9.930;2023-04-25T00:53:17;7.90;99.90
36206;DHT22;22242;48.796;9.930;2023-04-25T00:55:45;7.90;99.90
36206;DHT22;22242;48.796;9.930;2023-04-25T00:58:12;7.90;99.90
36206;DHT22;22242;48.796;9.930;2023-04-25T01:00:40;7.80;99.90
36206;DHT22;22242;48.796;9.930;2023-04-25T01:03:09;7.70;99.90
36206;DHT22;22242;48.796;9.930;2023-04-25T01:05:36;7.80;99.90
36206;DHT22;22242;48.796;9.930;2023-04-25T01:08:03;7.70;99.90
36206;DHT22;22242;48.796;9.930;2023-04-25T01:10:31;7.60;99.90
36206;DHT22;22242;48.796;9.930;2023-04-25T01:12:58;7.50;99.90
36206;DHT22;22242;48.796;9.930;2023-04-25T01:15:25;7.40;99.90
36206;DHT22;22242;48.796;9.930;2023-04-25T01:17:52;7.30;99.90
36206;DHT22;22242;48.796;9.930;2023-04-25T01:20:22;7.30;99.90
36206;DHT22;22242;48.796;9.930;2023-04-25T01:22:52;7.20;99.90
36206;DHT22;22242;48.796;9.930;2023-04-25T01:25:21;7.40;99.90
36206;DHT22;22242;48.796;9.930;2023-04-25T01:27:49;7.40;99.90
36206;DHT22;22242;48.796;9.930;2023-04-25T01:30:16;7.40;99.90
36206;DHT22;22242;48.796;9.930;2023-04-25T01:32:44;7.50;99.90
36206;DHT22;22242;48.796;9.930;2023-04-25T01:35:12;7.40;99.90
36206;DHT22;22242;48.796;9.930;2023-04-25T01:37:39;7.50;99.90
36206;DHT22;22242;48.796;9.930;2023-04-25T01:40:10;7.30;99.90
36206;DHT22;22242;48.796;9.930;2023-04-25T01:42:42;7.20;99.90
36206;DHT22;22242;48.796;9.930;2023-04-25T01:45:10;7.20;99.90
36206;DHT22;22242;48.796;9.930;2023-04-25T01:47:38;7.10;99.90
36206;DHT22;22242;48.796;9.930;2023-04-25T01:50:08;7.00;99.90
36206;DHT22;22242;48.796;9.930;2023-04-25T01:52:37;6.80;99.90
36206;DHT22;22242;48.796;9.930;2023-04-25T01:55:05;6.80;99.90
36206;DHT22;22242;48.796;9.930;2023-04-25T01:57:35;6.90;99.90
36206;DHT22;22242;48.796;9.930;2023-04-25T02:00:05;6.90;99.90
36206;DHT22;22242;48.796;9.930;2023-04-25T02:02:38;7.00;99.90
36206;DHT22;22242;48.796;9.930;2023-04-25T02:05:15;7.00;99.90
36206;DHT22;22242;48.796;9.930;2023-04-25T02:07:43;7.00;99.90
36206;DHT22;22242;48.796;9.930;2023-04-25T02:10:10;7.10;99.90
36206;DHT22;22242;48.796;9.930;2023-04-25T02:12:51;7.10;99.90
36206;DHT22;22242;48.796;9.930;2023-04-25T02:15:44;7.20;99.90
36206;DHT22;22242;48.796;9.930;2023-04-25T02:18:16;7.30;99.90
36206;DHT22;22242;48.796;9.930;2023-04-25T02:20:43;7.30;99.90
36206;DHT22;22242;48.796;9.930;2023-04-25T02:23:11;7.30;99.90
36206;DHT22;22242;48.796;9.930;2023-04-25T02:25:38;7.40;99.90
36206;DHT22;22242;48.796;9.930;2023-04-25T02:28:06;7.40;99.90
36206;DHT22;22242;48.796;9.930;2023-04-25T02:30:35;7.50;99.90
36206;DHT22;22242;48.796;9.930;2023-04-25T02:33:04;7.60;99.90
36206;DHT22;22242;48.796;9.930;2023-04-25T02:35:31;7.60;99.90
36206;DHT22;22242;48.796;9.930;2023-04-25T02:37:58;7.50;99.90
36206;DHT22;22242;48.796;9.930;2023-04-25T02:40:26;7.50;99.90
36206;DHT22;22242;48.796;9.930;2023-04-25T02:42:53;7.40;99.90
36206;DHT22;22242;48.796;9.930;2023-04-25T02:45:22;7.40;99.90
36206;DHT22;22242;48.796;9.930;2023-04-25T02:47:49;7.40;99.90
36206;DHT22;22242;48.796;9.930;2023-04-25T02:50:18;7.40;99.90
36206;DHT22;22242;48.796;9.930;2023-04-25T02:52:45;7.40;99.90
36206;DHT22;22242;48.796;9.930;2023-04-25T02:55:16;7.40;99.90
36206;DHT22;22242;48.796;9.930;2023-04-25T02:57:44;7.40;99.90
36206;DHT22;22242;48.796;9.930;2023-04-25T03:00:17;7.20;99.90
36206;DHT22;22242;48.796;9.930;2023-04-25T03:02:46;7.20;99.90
36206;DHT22;22242;48.796;9.930;2023-04-25T03:05:13;7.10;99.90
36206;DHT22;22242;48.796;9.930;2023-04-25T03:07:40;7.20;99.90
36206;DHT22;22242;48.796;9.930;2023-04-25T03:10:10;7.20;99.90
36206;DHT22;22242;48.796;9.930;2023-04-25T03:12:37;7.30;99.90
36206;DHT22;22242;48.796;9.930;2023-04-25T03:15:05;7.30;99.90
36206;DHT22;22242;48.796;9.930;2023-04-25T03:17:32;7.30;99.90
36206;DHT22;22242;48.796;9.930;2023-04-25T03:20:01;7.30;99.90
36206;DHT22;22242;48.796;9.930;2023-04-25T03:22:31;7.20;99.90
36206;DHT22;22242;48.796;9.930;2023-04-25T03:24:58;7.20;99.90
36206;DHT22;22242;48.796;9.930;2023-04-25T03:27:26;7.20;99.90
36206;DHT22;22242;48.796;9.930;2023-04-25T03:29:53;7.20;99.90
36206;DHT22;22242;48.796;9.930;2023-04-25T03:32:20;7.10;99.90
36206;DHT22;22242;48.796;9.930;2023-04-25T03:34:47;7.20;99.90
36206;DHT22;22242;48.796;9.930;2023-04-25T03:37:15;7.10;99.90
36206;DHT22;22242;48.796;9.930;2023-04-25T03:39:43;7.00;99.90
36206;DHT22;22242;48.796;9.930;2023-04-25T03:42:10;7.00;99.90
36206;DHT22;22242;48.796;9.930;2023-04-25T03:44:37;7.00;99.90
36206;DHT22;22242;48.796;9.930;2023-04-25T03:47:04;7.00;99.90
36206;DHT22;22242;48.796;9.930;2023-04-25T03:49:33;7.00;99.90
36206;DHT22;22242;48.796;9.930;2023-04-25T03:52:03;7.00;99.90
36206;DHT22;22242;48.796;9.930;2023-04-25T03:54:36;7.10;99.90
36206;DHT22;22242;48.796;9.930;2023-04-25T03:57:07;7.10;99.90
36206;DHT22;22242;48.796;9.930;2023-04-25T03:59:37;7.10;99.90
36206;DHT22;22242;48.796;9.930;2023-04-25T04:02:06;7.10;99.90
36206;DHT22;22242;48.796;9.930;2023-04-25T04:04:35;7.10;99.90
36206;DHT22;22242;48.796;9.930;2023-04-25T04:07:02;7.10;99.90
36206;DHT22;22242;48.796;9.930;2023-04-25T04:09:33;7.00;99.90
36206;DHT22;22242;48.796;9.930;2023-04-25T04:12:06;7.10;99.90
36206;DHT22;22242;48.796;9.930;2023-04-25T04:14:34;7.10;99.90
36206;DHT22;22242;48.796;9.930;2023-04-25T04:17:01;7.10;99.90
36206;DHT22;22242;48.796;9.930;2023-04-25T04:19:28;7.00;99.90
36206;DHT22;22242;48.796;9.930;2023-04-25T04:22:03;7.10;99.90
36206;DHT22;22242;48.796;9.930;2023-04-25T04:24:31;7.00;99.90
36206;DHT22;22242;48.796;9.930;2023-04-25T04:27:06;6.90;99.90
36206;DHT22;22242;48.796;9.930;2023-04-25T04:29:36;6.90;99.90
36206;DHT22;22242;48.796;9.930;2023-04-25T04:32:11;6.90;99.90
36206;DHT22;22242;48.796;9.930;2023-04-25T04:34:38;6.80;99.90
36206;DHT22;22242;48.796;9.930;2023-04-25T04:37:07;6.80;99.90
36206;DHT22;22242;48.796;9.930;2023-04-25T04:39:35;6.80;99.90
36206;DHT22;22242;48.796;9.930;2023-04-25T04:42:13;6.90;99.90
36206;DHT22;22242;48.796;9.930;2023-04-25T04:44:51;7.00;99.90
36206;DHT22;22242;48.796;9.930;2023-04-25T04:47:36;7.00;99.90
36206;DHT22;22242;48.796;9.930;2023-04-25T04:50:44;7.10;99.90
36206;DHT22;22242;48.796;9.930;2023-04-25T04:53:14;7.20;99.90
36206;DHT22;22242;48.796;9.930;2023-04-25T04:56:00;7.20;99.90
36206;DHT22;22242;48.796;9.930;2023-04-25T04:58:49;7.10;99.90
36206;DHT22;22242;48.796;9.930;2023-04-25T05:01:22;7.20;99.90
36206;DHT22;22242;48.796;9.930;2023-04-25T05:04:01;7.20;99.90
36206;DHT22;22242;48.796;9.930;2023-04-25T05:06:48;7.20;99.90
36206;DHT22;22242;48.796;9.930;2023-04-25T05:09:30;7.20;99.90
36206;DHT22;22242;48.796;9.930;2023-04-25T05:12:27;7.30;99.90
36206;DHT22;22242;48.796;9.930;2023-04-25T05:15:19;7.20;99.90
36206;DHT22;22242;48.796;9.930;2023-04-25T05:18:09;7.30;99.90
36206;DHT22;22242;48.796;9.930;2023-04-25T05:21:06;7.40;99.90
36206;DHT22;22242;48.796;9.930;2023-04-25T05:23:46;7.50;99.90
36206;DHT22;22242;48.796;9.930;2023-04-25T05:26:32;7.50;99.90
36206;DHT22;22242;48.796;9.930;2023-04-25T05:29:18;7.50;99.90
36206;DHT22;22242;48.796;9.930;2023-04-25T05:32:09;7.50;99.90
36206;DHT22;22242;48.796;9.930;2023-04-25T05:34:37;7.50;99.90
36206;DHT22;22242;48.796;9.930;2023-04-25T05:37:09;7.50;99.90
36206;DHT22;22242;48.796;9.930;2023-04-25T05:39:47;7.60;99.90
36206;DHT22;22242;48.796;9.930;2023-04-25T05:42:31;7.50;99.90
36206;DHT22;22242;48.796;9.930;2023-04-25T05:45:17;7.70;99.90
36206;DHT22;22242;48.796;9.930;2023-04-25T05:48:06;7.60;99.90
36206;DHT22;22242;48.796;9.930;2023-04-25T05:50:42;7.60;99.90
36206;DHT22;22242;48.796;9.930;2023-04-25T05:53:18;7.50;99.90
36206;DHT22;22242;48.796;9.930;2023-04-25T05:55:52;7.40;99.90
36206;DHT22;22242;48.796;9.930;2023-04-25T05:58:21;7.40;99.90
36206;DHT22;22242;48.796;9.930;2023-04-25T06:00:49;7.30;99.90
36206;DHT22;22242;48.796;9.930;2023-04-25T06:03:18;7.40;99.90
36206;DHT22;22242;48.796;9.930;2023-04-25T06:05:45;7.30;99.90
36206;DHT22;22242;48.796;9.930;2023-04-25T06:08:13;7.20;99.90
36206;DHT22;22242;48.796;9.930;2023-04-25T06:10:40;7.20;99.90
36206;DHT22;22242;48.796;9.930;2023-04-25T06:13:07;7.20;99.90
36206;DHT22;22242;48.796;9.930;2023-04-25T06:15:36;7.20;99.90
36206;DHT22;22242;48.796;9.930;2023-04-25T06:18:03;7.40;99.90
36206;DHT22;22242;48.796;9.930;2023-04-25T06:20:31;7.40;99.90
36206;DHT22;22242;48.796;9.930;2023-04-25T06:23:00;7.50;99.90
36206;DHT22;22242;48.796;9.930;2023-04-25T06:25:47;7.80;99.90
36206;DHT22;22242;48.796;9.930;2023-04-25T06:28:14;8.00;99.90
36206;DHT22;22242;48.796;9.930;2023-04-25T06:30:43;8.30;99.90
36206;DHT22;22242;48.796;9.930;2023-04-25T06:33:13;8.50;99.90
36206;DHT22;22242;48.796;9.930;2023-04-25T06:35:42;8.80;99.90
36206;DHT22;22242;48.796;9.930;2023-04-25T06:38:12;8.90;99.90
36206;DHT22;22242;48.796;9.930;2023-04-25T06:40:42;8.50;99.90
36206;DHT22;22242;48.796;9.930;2023-04-25T06:43:10;8.80;99.90
36206;DHT22;22242;48.796;9.930;2023-04-25T06:45:55;9.00;99.90
36206;DHT22;22242;48.796;9.930;2023-04-25T06:48:26;8.90;99.90
36206;DHT22;22242;48.796;9.930;2023-04-25T06:50:55;9.10;99.90
36206;DHT22;22242;48.796;9.930;2023-04-25T06:53:23;9.20;99.90
36206;DHT22;22242;48.796;9.930;2023-04-25T06:55:56;9.10;99.90
36206;DHT22;22242;48.796;9.930;2023-04-25T06:58:28;8.90;99.90
36206;DHT22;22242;48.796;9.930;2023-04-25T07:01:06;9.10;99.90
36206;DHT22;22242;48.796;9.930;2023-04-25T07:03:33;9.10;99.90
36206;DHT22;22242;48.796;9.930;2023-04-25T07:06:07;8.90;99.90
36206;DHT22;22242;48.796;9.930;2023-04-25T07:08:35;8.60;99.90
36206;DHT22;22242;48.796;9.930;2023-04-25T07:11:02;8.60;99.90
36206;DHT22;22242;48.796;9.930;2023-04-25T07:13:29;8.60;99.90
36206;DHT22;22242;48.796;9.930;2023-04-25T07:15:56;8.60;99.90
36206;DHT22;22242;48.796;9.930;2023-04-25T07:18:24;8.80;99.90
36206;DHT22;22242;48.796;9.930;2023-04-25T07:20:51;8.90;99.90
36206;DHT22;22242;48.796;9.930;2023-04-25T07:23:20;9.50;99.90
36206;DHT22;22242;48.796;9.930;2023-04-25T07:25:47;10.40;99.90
36206;DHT22;22242;48.796;9.930;2023-04-25T07:28:19;11.40;99.90
36206;DHT22;22242;48.796;9.930;2023-04-25T07:30:47;11.20;99.90
36206;DHT22;22242;48.796;9.930;2023-04-25T07:33:14;11.70;99.90
36206;DHT22;22242;48.796;9.930;2023-04-25T07:35:41;11.30;99.90
36206;DHT22;22242;48.796;9.930;2023-04-25T07:38:08;11.20;99.90
36206;DHT22;22242;48.796;9.930;2023-04-25T07:40:37;11.50;99.90
36206;DHT22;22242;48.796;9.930;2023-04-25T07:43:07;11.70;99.90
36206;DHT22;22242;48.796;9.930;2023-04-25T07:45:45;10.80;99.90
36206;DHT22;22242;48.796;9.930;2023-04-25T07:48:16;10.60;99.90
36206;DHT22;22242;48.796;9.930;2023-04-25T07:50:45;10.10;99.90
36206;DHT22;22242;48.796;9.930;2023-04-25T07:53:13;10.20;99.90
36206;DHT22;22242;48.796;9.930;2023-04-25T07:55:51;10.50;99.90
36206;DHT22;22242;48.796;9.930;2023-04-25T07:58:20;10.10;99.90
36206;DHT22;22242;48.796;9.930;2023-04-25T08:00:51;10.40;99.90
36206;DHT22;22242;48.796;9.930;2023-04-25T08:03:37;10.20;99.90
36206;DHT22;22242;48.796;9.930;2023-04-25T08:06:09;9.90;99.90
36206;DHT22;22242;48.796;9.930;2023-04-25T08:08:59;9.40;99.90
36206;DHT22;22242;48.796;9.930;2023-04-25T08:11:35;9.10;99.90
36206;DHT22;22242;48.796;9.930;2023-04-25T08:14:02;8.90;99.90
36206;DHT22;22242;48.796;9.930;2023-04-25T08:16:29;8.90;99.90
36206;DHT22;22242;48.796;9.930;2023-04-25T08:18:57;9.10;99.90
36206;DHT22;22242;48.796;9.930;2023-04-25T08:21:24;9.20;99.90
36206;DHT22;22242;48.796;9.930;2023-04-25T08:23:54;9.30;99.90
36206;DHT22;22242;48.796;9.930;2023-04-25T08:26:25;9.10;99.90
36206;DHT22;22242;48.796;9.930;2023-04-25T08:28:54;9.10;99.90
36206;DHT22;22242;48.796;9.930;2023-04-25T08:31:21;9.00;99.90
36206;DHT22;22242;48.796;9.930;2023-04-25T08:33:55;8.90;99.90
36206;DHT22;22242;48.796;9.930;2023-04-25T08:36:43;9.00;99.90
36206;DHT22;22242;48.796;9.930;2023-04-25T08:39:26;9.30;99.90
36206;DHT22;22242;48.796;9.930;2023-04-25T08:42:17;9.60;99.90
36206;DHT22;22242;48.796;9.930;2023-04-25T08:44:48;9.60;99.90
36206;DHT22;22242;48.796;9.930;2023-04-25T08:47:15;10.10;99.90
36206;DHT22;22242;48.796;9.930;2023-04-25T08:49:53;10.50;99.90
36206;DHT22;22242;48.796;9.930;2023-04-25T08:52:22;10.70;99.90
36206;DHT22;22242;48.796;9.930;2023-04-25T08:54:53;11.00;99.90
36206;DHT22;22242;48.796;9.930;2023-04-25T08:57:21;10.90;99.90
36206;DHT22;22242;48.796;9.930;2023-04-25T08:59:52;10.90;99.90
36206;DHT22;22242;48.796;9.930;2023-04-25T09:02:20;10.40;99.90
36206;DHT22;22242;48.796;9.930;2023-04-25T09:04:50;10.40;99.90
36206;DHT22;22242;48.796;9.930;2023-04-25T09:07:17;10.30;99.90
36206;DHT22;22242;48.796;9.930;2023-04-25T09:09:47;10.60;99.90
36206;DHT22;22242;48.796;9.930;2023-04-25T09:12:18;10.90;99.90
36206;DHT22;22242;48.796;9.930;2023-04-25T09:15:02;11.10;99.90
36206;DHT22;22242;48.796;9.930;2023-04-25T09:17:55;10.90;99.90
36206;DHT22;22242;48.796;9.930;2023-04-25T09:20:22;10.50;99.90
36206;DHT22;22242;48.796;9.930;2023-04-25T09:23:01;9.90;99.90
36206;DHT22;22242;48.796;9.930;2023-04-25T09:25:34;10.10;99.90
36206;DHT22;22242;48.796;9.930;2023-04-25T09:28:05;10.10;99.90
36206;DHT22;22242;48.796;9.930;2023-04-25T09:30:34;9.70;99.90
36206;DHT22;22242;48.796;9.930;2023-04-25T09:33:17;9.90;99.90
36206;DHT22;22242;48.796;9.930;2023-04-25T09:35:48;10.10;99.90
36206;DHT22;22242;48.796;9.930;2023-04-25T09:38:26;10.30;99.90
36206;DHT22;22242;48.796;9.930;2023-04-25T09:40:57;10.20;99.90
36206;DHT22;22242;48.796;9.930;2023-04-25T09:43:39;10.10;99.90
36206;DHT22;22242;48.796;9.930;2023-04-25T09:46:10;10.60;99.90
36206;DHT22;22242;48.796;9.930;2023-04-25T09:48:48;10.40;99.90
36206;DHT22;22242;48.796;9.930;2023-04-25T09:51:18;10.50;99.90
36206;DHT22;22242;48.796;9.930;2023-04-25T09:53:47;10.40;99.90
36206;DHT22;22242;48.796;9.930;2023-04-25T09:56:27;10.20;99.90
36206;DHT22;22242;48.796;9.930;2023-04-25T09:58:58;10.00;99.90
36206;DHT22;22242;48.796;9.930;2023-04-25T10:01:27;9.80;99.90
36206;DHT22;22242;48.796;9.930;2023-04-25T10:04:06;10.10;99.90
36206;DHT22;22242;48.796;9.930;2023-04-25T10:07:07;9.90;99.90
36206;DHT22;22242;48.796;9.930;2023-04-25T10:09:37;9.90;99.90
36206;DHT22;22242;48.796;9.930;2023-04-25T10:12:06;10.00;99.90
36206;DHT22;22242;48.796;9.930;2023-04-25T10:14:33;10.50;99.90
36206;DHT22;22242;48.796;9.930;2023-04-25T10:17:02;10.80;99.90
36206;DHT22;22242;48.796;9.930;2023-04-25T10:19:29;10.90;99.90
36206;DHT22;22242;48.796;9.930;2023-04-25T10:22:06;11.00;99.90
36206;DHT22;22242;48.796;9.930;2023-04-25T10:24:35;11.10;99.90
36206;DHT22;22242;48.796;9.930;2023-04-25T10:27:02;11.50;99.90
36206;DHT22;22242;48.796;9.930;2023-04-25T10:29:30;11.30;99.90
36206;DHT22;22242;48.796;9.930;2023-04-25T10:31:57;11.20;99.90
36206;DHT22;22242;48.796;9.930;2023-04-25T10:34:38;11.00;99.90
36206;DHT22;22242;48.796;9.930;2023-04-25T10:37:09;11.00;99.90
36206;DHT22;22242;48.796;9.930;2023-04-25T10:39:39;11.00;99.90
36206;DHT22;22242;48.796;9.930;2023-04-25T10:42:07;10.50;99.90
36206;DHT22;22242;48.796;9.930;2023-04-25T10:44:34;10.40;99.90
36206;DHT22;22242;48.796;9.930;2023-04-25T10:47:03;10.20;99.90
36206;DHT22;22242;48.796;9.930;2023-04-25T10:49:35;10.00;99.90
36206;DHT22;22242;48.796;9.930;2023-04-25T10:52:19;9.70;99.90
36206;DHT22;22242;48.796;9.930;2023-04-25T10:54:52;9.60;99.90
36206;DHT22;22242;48.796;9.930;2023-04-25T10:57:30;9.80;99.90
36206;DHT22;22242;48.796;9.930;2023-04-25T11:00:01;8.90;99.90
36206;DHT22;22242;48.796;9.930;2023-04-25T11:02:32;8.50;99.90
36206;DHT22;22242;48.796;9.930;2023-04-25T11:05:05;8.10;99.90
36206;DHT22;22242;48.796;9.930;2023-04-25T11:07:38;8.10;99.90
36206;DHT22;22242;48.796;9.930;2023-04-25T11:10:06;8.00;99.90
36206;DHT22;22242;48.796;9.930;2023-04-25T11:12:33;7.90;99.90
36206;DHT22;22242;48.796;9.930;2023-04-25T11:15:02;8.00;99.90
36206;DHT22;22242;48.796;9.930;2023-04-25T11:17:29;8.10;99.90
36206;DHT22;22242;48.796;9.930;2023-04-25T11:19:56;8.50;99.90
36206;DHT22;22242;48.796;9.930;2023-04-25T11:22:26;8.80;99.90
36206;DHT22;22242;48.796;9.930;2023-04-25T11:24:54;9.00;99.90
36206;DHT22;22242;48.796;9.930;2023-04-25T11:27:21;9.50;99.90
36206;DHT22;22242;48.796;9.930;2023-04-25T11:29:50;9.70;99.90
36206;DHT22;22242;48.796;9.930;2023-04-25T11:32:18;9.80;99.90
36206;DHT22;22242;48.796;9.930;2023-04-25T11:34:46;9.90;99.90
36206;DHT22;22242;48.796;9.930;2023-04-25T11:37:14;9.70;99.90
36206;DHT22;22242;48.796;9.930;2023-04-25T11:39:45;9.10;99.90
36206;DHT22;22242;48.796;9.930;2023-04-25T11:42:13;8.90;99.90
36206;DHT22;22242;48.796;9.930;2023-04-25T11:44:40;9.20;99.90
36206;DHT22;22242;48.796;9.930;2023-04-25T11:47:07;9.10;99.90
36206;DHT22;22242;48.796;9.930;2023-04-25T11:49:35;9.30;99.90
36206;DHT22;22242;48.796;9.930;2023-04-25T11:52:02;9.00;99.90
36206;DHT22;22242;48.796;9.930;2023-04-25T11:54:29;8.60;99.90
36206;DHT22;22242;48.796;9.930;2023-04-25T11:56:57;8.20;99.90
36206;DHT22;22242;48.796;9.930;2023-04-25T11:59:25;8.00;99.90
36206;DHT22;22242;48.796;9.930;2023-04-25T12:01:53;7.60;99.90
36206;DHT22;22242;48.796;9.930;2023-04-25T12:04:22;7.60;99.90
36206;DHT22;22242;48.796;9.930;2023-04-25T12:06:50;7.40;99.90
36206;DHT22;22242;48.796;9.930;2023-04-25T12:09:20;7.50;99.90
36206;DHT22;22242;48.796;9.930;2023-04-25T12:11:52;7.30;99.90
36206;DHT22;22242;48.796;9.930;2023-04-25T12:14:25;7.20;99.90
36206;DHT22;22242;48.796;9.930;2023-04-25T12:16:54;6.80;99.90
36206;DHT22;22242;48.796;9.930;2023-04-25T12:19:21;6.90;99.90
36206;DHT22;22242;48.796;9.930;2023-04-25T12:21:49;7.00;99.90
36206;DHT22;22242;48.796;9.930;2023-04-25T12:24:22;7.10;99.90
36206;DHT22;22242;48.796;9.930;2023-04-25T12:26:53;6.90;99.90
36206;DHT22;22242;48.796;9.930;2023-04-25T12:29:21;6.90;99.90
36206;DHT22;22242;48.796;9.930;2023-04-25T12:31:51;6.70;99.90
36206;DHT22;22242;48.796;9.930;2023-04-25T12:34:19;6.80;99.90
36206;DHT22;22242;48.796;9.930;2023-04-25T12:36:46;6.90;99.90
36206;DHT22;22242;48.796;9.930;2023-04-25T12:39:16;6.80;99.90
36206;DHT22;22242;48.796;9.930;2023-04-25T12:41:44;7.10;99.90
36206;DHT22;22242;48.796;9.930;2023-04-25T12:44:11;7.60;99.90
36206;DHT22;22242;48.796;9.930;2023-04-25T12:46:38;7.90;99.90
36206;DHT22;22242;48.796;9.930;2023-04-25T12:49:08;8.00;99.90
36206;DHT22;22242;48.796;9.930;2023-04-25T12:51:35;8.00;99.90
36206;DHT22;22242;48.796;9.930;2023-04-25T12:54:04;7.90;99.90
36206;DHT22;22242;48.796;9.930;2023-04-25T12:56:31;8.00;99.90
36206;DHT22;22242;48.796;9.930;2023-04-25T12:58:58;8.30;99.90
36206;DHT22;22242;48.796;9.930;2023-04-25T13:01:26;8.90;99.90
36206;DHT22;22242;48.796;9.930;2023-04-25T13:03:53;8.80;99.90
36206;DHT22;22242;48.796;9.930;2023-04-25T13:06:22;9.00;99.90
36206;DHT22;22242;48.796;9.930;2023-04-25T13:08:49;8.90;99.90
36206;DHT22;22242;48.796;9.930;2023-04-25T13:11:16;9.20;99.90
36206;DHT22;22242;48.796;9.930;2023-04-25T13:13:44;9.20;99.90
36206;DHT22;22242;48.796;9.930;2023-04-25T13:16:11;9.50;99.90
36206;DHT22;22242;48.796;9.930;2023-04-25T13:18:39;9.90;99.90
36206;DHT22;22242;48.796;9.930;2023-04-25T13:21:06;10.10;99.90
36206;DHT22;22242;48.796;9.930;2023-04-25T13:23:35;10.40;99.90
36206;DHT22;22242;48.796;9.930;2023-04-25T13:26:02;10.20;99.90
36206;DHT22;22242;48.796;9.930;2023-04-25T13:28:29;9.80;99.90
36206;DHT22;22242;48.796;9.930;2023-04-25T13:30:56;9.70;99.90
36206;DHT22;22242;48.796;9.930;2023-04-25T13:33:23;9.80;99.90
36206;DHT22;22242;48.796;9.930;2023-04-25T13:35:51;9.80;99.90
36206;DHT22;22242;48.796;9.930;2023-04-25T13:38:21;10.20;99.90
36206;DHT22;22242;48.796;9.930;2023-04-25T13:40:50;9.60;99.90
36206;DHT22;22242;48.796;9.930;2023-04-25T13:43:18;9.60;99.90
36206;DHT22;22242;48.796;9.930;2023-04-25T13:45:46;9.70;99.90
36206;DHT22;22242;48.796;9.930;2023-04-25T13:48:13;9.70;99.90
36206;DHT22;22242;48.796;9.930;2023-04-25T13:50:40;9.50;99.90
36206;DHT22;22242;48.796;9.930;2023-04-25T13:53:07;9.50;99.90
36206;DHT22;22242;48.796;9.930;2023-04-25T13:55:34;9.80;99.90
36206;DHT22;22242;48.796;9.930;2023-04-25T13:58:03;9.40;99.90
36206;DHT22;22242;48.796;9.930;2023-04-25T14:00:34;8.90;99.90
36206;DHT22;22242;48.796;9.930;2023-04-25T14:03:03;8.60;99.90
36206;DHT22;22242;48.796;9.930;2023-04-25T14:05:33;8.70;99.90
36206;DHT22;22242;48.796;9.930;2023-04-25T14:08:05;8.70;99.90
36206;DHT22;22242;48.796;9.930;2023-04-25T14:10:33;8.50;99.90
36206;DHT22;22242;48.796;9.930;2023-04-25T14:13:00;8.80;99.90
36206;DHT22;22242;48.796;9.930;2023-04-25T14:15:30;8.40;99.90
36206;DHT22;22242;48.796;9.930;2023-04-25T14:17:58;8.90;99.90
36206;DHT22;22242;48.796;9.930;2023-04-25T14:20:25;9.20;99.90
36206;DHT22;22242;48.796;9.930;2023-04-25T14:22:52;9.20;99.90
36206;DHT22;22242;48.796;9.930;2023-04-25T14:25:20;9.30;99.90
36206;DHT22;22242;48.796;9.930;2023-04-25T14:27:47;9.00;99.90
36206;DHT22;22242;48.796;9.930;2023-04-25T14:30:15;9.00;99.90
36206;DHT22;22242;48.796;9.930;2023-04-25T14:32:44;9.00;99.90
36206;DHT22;22242;48.796;9.930;2023-04-25T14:35:12;8.90;99.90
36206;DHT22;22242;48.796;9.930;2023-04-25T14:37:38;8.80;99.90
36206;DHT22;22242;48.796;9.930;2023-04-25T14:40:07;8.60;99.90
36206;DHT22;22242;48.796;9.930;2023-04-25T14:42:36;8.50;99.90
36206;DHT22;22242;48.796;9.930;2023-04-25T14:45:03;8.30;99.90
36206;DHT22;22242;48.796;9.930;2023-04-25T14:47:31;8.70;99.90
36206;DHT22;22242;48.796;9.930;2023-04-25T14:49:59;8.80;99.90
36206;DHT22;22242;48.796;9.930;2023-04-25T14:52:27;8.80;99.90
36206;DHT22;22242;48.796;9.930;2023-04-25T14:54:54;8.90;99.90
36206;DHT22;22242;48.796;9.930;2023-04-25T14:57:21;8.90;99.90
36206;DHT22;22242;48.796;9.930;2023-04-25T14:59:48;8.80;99.90
36206;DHT22;22242;48.796;9.930;2023-04-25T15:02:15;8.70;99.90
36206;DHT22;22242;48.796;9.930;2023-04-25T15:04:42;8.50;99.90
36206;DHT22;22242;48.796;9.930;2023-04-25T15:07:11;8.20;99.90
36206;DHT22;22242;48.796;9.930;2023-04-25T15:09:38;8.10;99.90
36206;DHT22;22242;48.796;9.930;2023-04-25T15:12:05;7.90;99.90
36206;DHT22;22242;48.796;9.930;2023-04-25T15:14:33;7.80;99.90
36206;DHT22;22242;48.796;9.930;2023-04-25T15:17:00;7.80;99.90
36206;DHT22;22242;48.796;9.930;2023-04-25T15:19:27;7.80;99.90
36206;DHT22;22242;48.796;9.930;2023-04-25T15:21:55;7.70;99.90
36206;DHT22;22242;48.796;9.930;2023-04-25T15:24:23;7.60;99.90
36206;DHT22;22242;48.796;9.930;2023-04-25T15:26:50;7.10;99.90
36206;DHT22;22242;48.796;9.930;2023-04-25T15:29:18;7.00;99.90
36206;DHT22;22242;48.796;9.930;2023-04-25T15:31:44;7.10;99.90
36206;DHT22;22242;48.796;9.930;2023-04-25T15:34:12;7.10;99.90
36206;DHT22;22242;48.796;9.930;2023-04-25T15:36:39;7.00;99.90
36206;DHT22;22242;48.796;9.930;2023-04-25T15:39:06;7.30;99.90
36206;DHT22;22242;48.796;9.930;2023-04-25T15:41:35;7.40;99.90
36206;DHT22;22242;48.796;9.930;2023-04-25T15:44:03;7.20;99.90
36206;DHT22;22242;48.796;9.930;2023-04-25T15:46:30;7.20;99.90
36206;DHT22;22242;48.796;9.930;2023-04-25T15:48:57;7.10;99.90
36206;DHT22;22242;48.796;9.930;2023-04-25T15:51:25;7.00;99.90
36206;DHT22;22242;48.796;9.930;2023-04-25T15:53:53;7.00;99.90
36206;DHT22;22242;48.796;9.930;2023-04-25T15:56:20;7.00;99.90
36206;DHT22;22242;48.796;9.930;2023-04-25T15:58:50;7.00;99.90
36206;DHT22;22242;48.796;9.930;2023-04-25T16:01:17;7.00;99.90
36206;DHT22;22242;48.796;9.930;2023-04-25T16:03:44;6.90;99.90